sensor_id;sensor_type;location;lat;lon;timestamp;P1;durP1;ratioP1;P2;durP2;ratioP2
71679;SDS011;59512;42.662;23.254;2023-04-24T00:00:12;16.20;;;10.50;;
71679;SDS011;59512;42.662;23.254;2023-04-24T00:02:40;16.27;;;10.30;;
71679;SDS011;59512;42.662;23.254;2023-04-24T00:05:06;15.15;;;10.68;;
71679;SDS011;59512;42.662;23.254;2023-04-24T00:07:32;16.83;;;10.07;;
71679;SDS011;59512;42.662;23.254;2023-04-24T00:09:58;14.18;;;9.52;;
71679;SDS011;59512;42.662;23.254;2023-04-24T00:12:24;13.57;;;9.87;;
71679;SDS011;59512;42.662;23.254;2023-04-24T00:14:50;18.38;;;11.40;;
71679;SDS011;59512;42.662;23.254;2023-04-24T00:17:16;21.47;;;11.33;;
71679;SDS011;59512;42.662;23.254;2023-04-24T00:19:44;19.55;;;11.57;;
71679;SDS011;59512;42.662;23.254;2023-04-24T00:22:10;17.20;;;11.63;;
71679;SDS011;59512;42.662;23.254;2023-04-24T00:24:35;17.98;;;11.65;;
71679;SDS011;59512;42.662;23.254;2023-04-24T00:27:01;20.63;;;13.17;;
71679;SDS011;59512;42.662;23.254;2023-04-24T00:29:27;20.27;;;12.40;;
71679;SDS011;59512;42.662;23.254;2023-04-24T00:31:53;16.00;;;11.30;;
71679;SDS011;59512;42.662;23.254;2023-04-24T00:34:19;15.85;;;10.65;;
71679;SDS011;59512;42.662;23.254;2023-04-24T00:36:44;17.57;;;11.83;;
71679;SDS011;59512;42.662;23.254;2023-04-24T00:39:10;15.20;;;11.03;;
71679;SDS011;59512;42.662;23.254;2023-04-24T00:41:35;16.17;;;10.98;;
71679;SDS011;59512;42.662;23.254;2023-04-24T00:44:01;16.60;;;11.33;;
71679;SDS011;59512;42.662;23.254;2023-04-24T00:46:26;17.27;;;11.07;;
71679;SDS011;59512;42.662;23.254;2023-04-24T00:48:52;16.15;;;10.02;;
71679;SDS011;59512;42.662;23.254;2023-04-24T00:51:17;15.33;;;9.80;;
71679;SDS011;59512;42.662;23.254;2023-04-24T00:53:43;15.40;;;9.97;;
71679;SDS011;59512;42.662;23.254;2023-04-24T00:56:09;18.80;;;10.65;;
71679;SDS011;59512;42.662;23.254;2023-04-24T00:58:34;15.80;;;10.57;;
71679;SDS011;59512;42.662;23.254;2023-04-24T01:01:00;16.63;;;10.97;;
71679;SDS011;59512;42.662;23.254;2023-04-24T01:03:26;15.85;;;10.88;;
71679;SDS011;59512;42.662;23.254;2023-04-24T01:05:54;17.63;;;11.88;;
71679;SDS011;59512;42.662;23.254;2023-04-24T01:08:20;17.47;;;11.97;;
71679;SDS011;59512;42.662;23.254;2023-04-24T01:10:48;19.08;;;13.10;;
71679;SDS011;59512;42.662;23.254;2023-04-24T01:13:15;18.65;;;13.15;;
71679;SDS011;59512;42.662;23.254;2023-04-24T01:15:41;21.70;;;14.30;;
71679;SDS011;59512;42.662;23.254;2023-04-24T01:18:06;18.37;;;12.90;;
71679;SDS011;59512;42.662;23.254;2023-04-24T01:20:32;19.00;;;12.60;;
71679;SDS011;59512;42.662;23.254;2023-04-24T01:22:58;22.60;;;14.53;;
71679;SDS011;59512;42.662;23.254;2023-04-24T01:25:25;20.73;;;13.80;;
71679;SDS011;59512;42.662;23.254;2023-04-24T01:27:51;19.50;;;14.73;;
71679;SDS011;59512;42.662;23.254;2023-04-24T01:30:17;18.65;;;13.40;;
71679;SDS011;59512;42.662;23.254;2023-04-24T01:32:43;16.47;;;12.70;;
71679;SDS011;59512;42.662;23.254;2023-04-24T01:35:10;19.95;;;14.05;;
71679;SDS011;59512;42.662;23.254;2023-04-24T01:37:35;18.47;;;13.03;;
71679;SDS011;59512;42.662;23.254;2023-04-24T01:40:02;22.15;;;15.10;;
71679;SDS011;59512;42.662;23.254;2023-04-24T01:42:29;20.13;;;14.45;;
71679;SDS011;59512;42.662;23.254;2023-04-24T01:44:55;20.07;;;14.50;;
71679;SDS011;59512;42.662;23.254;2023-04-24T01:47:21;20.92;;;13.63;;
71679;SDS011;59512;42.662;23.254;2023-04-24T01:49:46;20.20;;;14.40;;
71679;SDS011;59512;42.662;23.254;2023-04-24T01:52:13;20.52;;;14.20;;
71679;SDS011;59512;42.662;23.254;2023-04-24T01:54:38;19.53;;;14.93;;
71679;SDS011;59512;42.662;23.254;2023-04-24T01:57:03;21.52;;;14.82;;
71679;SDS011;59512;42.662;23.254;2023-04-24T01:59:29;20.17;;;15.73;;
71679;SDS011;59512;42.662;23.254;2023-04-24T02:01:55;20.63;;;16.50;;
71679;SDS011;59512;42.662;23.254;2023-04-24T02:04:20;20.88;;;16.35;;
71679;SDS011;59512;42.662;23.254;2023-04-24T02:06:46;21.03;;;15.20;;
71679;SDS011;59512;42.662;23.254;2023-04-24T02:09:11;22.73;;;17.33;;
71679;SDS011;59512;42.662;23.254;2023-04-24T02:11:36;24.30;;;18.63;;
71679;SDS011;59512;42.662;23.254;2023-04-24T02:14:02;25.23;;;17.73;;
71679;SDS011;59512;42.662;23.254;2023-04-24T02:16:28;21.43;;;16.17;;
71679;SDS011;59512;42.662;23.254;2023-04-24T02:18:57;22.13;;;16.70;;
71679;SDS011;59512;42.662;23.254;2023-04-24T02:21:22;25.30;;;16.50;;
71679;SDS011;59512;42.662;23.254;2023-04-24T02:23:47;23.60;;;15.93;;
71679;SDS011;59512;42.662;23.254;2023-04-24T02:26:13;23.23;;;15.47;;
71679;SDS011;59512;42.662;23.254;2023-04-24T02:28:38;20.27;;;15.83;;
71679;SDS011;59512;42.662;23.254;2023-04-24T02:31:04;22.97;;;17.07;;
71679;SDS011;59512;42.662;23.254;2023-04-24T02:33:31;21.77;;;16.23;;
71679;SDS011;59512;42.662;23.254;2023-04-24T02:35:56;22.13;;;16.50;;
71679;SDS011;59512;42.662;23.254;2023-04-24T02:38:22;22.65;;;16.15;;
71679;SDS011;59512;42.662;23.254;2023-04-24T02:40:47;24.10;;;16.10;;
71679;SDS011;59512;42.662;23.254;2023-04-24T02:43:12;23.50;;;16.27;;
71679;SDS011;59512;42.662;23.254;2023-04-24T02:45:38;20.97;;;15.77;;
71679;SDS011;59512;42.662;23.254;2023-04-24T02:48:03;21.37;;;16.87;;
71679;SDS011;59512;42.662;23.254;2023-04-24T02:50:29;22.48;;;17.27;;
71679;SDS011;59512;42.662;23.254;2023-04-24T02:52:54;21.30;;;16.00;;
71679;SDS011;59512;42.662;23.254;2023-04-24T02:55:19;21.87;;;16.20;;
71679;SDS011;59512;42.662;23.254;2023-04-24T02:57:45;25.23;;;18.93;;
71679;SDS011;59512;42.662;23.254;2023-04-24T03:00:10;21.27;;;17.00;;
71679;SDS011;59512;42.662;23.254;2023-04-24T03:02:36;21.92;;;15.40;;
71679;SDS011;59512;42.662;23.254;2023-04-24T03:05:02;20.93;;;15.50;;
71679;SDS011;59512;42.662;23.254;2023-04-24T03:07:28;21.45;;;16.92;;
71679;SDS011;59512;42.662;23.254;2023-04-24T03:09:53;23.40;;;15.63;;
71679;SDS011;59512;42.662;23.254;2023-04-24T03:12:19;21.33;;;14.87;;
71679;SDS011;59512;42.662;23.254;2023-04-24T03:14:44;22.17;;;15.02;;
71679;SDS011;59512;42.662;23.254;2023-04-24T03:17:10;17.50;;;13.87;;
71679;SDS011;59512;42.662;23.254;2023-04-24T03:19:35;19.50;;;14.77;;
71679;SDS011;59512;42.662;23.254;2023-04-24T03:22:04;18.65;;;12.77;;
71679;SDS011;59512;42.662;23.254;2023-04-24T03:24:29;18.33;;;12.83;;
71679;SDS011;59512;42.662;23.254;2023-04-24T03:26:55;17.95;;;13.35;;
71679;SDS011;59512;42.662;23.254;2023-04-24T03:29:21;17.83;;;12.90;;
71679;SDS011;59512;42.662;23.254;2023-04-24T03:31:47;18.47;;;13.90;;
71679;SDS011;59512;42.662;23.254;2023-04-24T03:34:12;18.20;;;15.40;;
71679;SDS011;59512;42.662;23.254;2023-04-24T03:36:38;19.20;;;13.88;;
71679;SDS011;59512;42.662;23.254;2023-04-24T03:39:03;17.43;;;13.53;;
71679;SDS011;59512;42.662;23.254;2023-04-24T03:41:29;20.10;;;15.17;;
71679;SDS011;59512;42.662;23.254;2023-04-24T03:43:55;19.13;;;13.48;;
71679;SDS011;59512;42.662;23.254;2023-04-24T03:46:21;18.90;;;14.57;;
71679;SDS011;59512;42.662;23.254;2023-04-24T03:48:46;19.40;;;13.45;;
71679;SDS011;59512;42.662;23.254;2023-04-24T03:51:11;18.00;;;13.60;;
71679;SDS011;59512;42.662;23.254;2023-04-24T03:53:37;19.20;;;13.80;;
71679;SDS011;59512;42.662;23.254;2023-04-24T03:56:02;19.63;;;15.30;;
71679;SDS011;59512;42.662;23.254;2023-04-24T03:58:28;20.27;;;15.03;;
71679;SDS011;59512;42.662;23.254;2023-04-24T04:00:53;20.55;;;13.70;;
71679;SDS011;59512;42.662;23.254;2023-04-24T04:03:19;22.10;;;14.57;;
71679;SDS011;59512;42.662;23.254;2023-04-24T04:05:44;18.60;;;12.80;;
71679;SDS011;59512;42.662;23.254;2023-04-24T04:08:10;19.48;;;14.68;;
71679;SDS011;59512;42.662;23.254;2023-04-24T04:10:35;21.10;;;14.60;;
71679;SDS011;59512;42.662;23.254;2023-04-24T04:13:01;17.13;;;12.67;;
71679;SDS011;59512;42.662;23.254;2023-04-24T04:15:26;17.60;;;12.67;;
71679;SDS011;59512;42.662;23.254;2023-04-24T04:17:51;27.73;;;15.70;;
71679;SDS011;59512;42.662;23.254;2023-04-24T04:20:17;18.97;;;13.83;;
71679;SDS011;59512;42.662;23.254;2023-04-24T04:22:42;20.63;;;14.07;;
71679;SDS011;59512;42.662;23.254;2023-04-24T04:25:08;23.43;;;14.77;;
71679;SDS011;59512;42.662;23.254;2023-04-24T04:27:33;21.53;;;13.63;;
71679;SDS011;59512;42.662;23.254;2023-04-24T04:29:59;21.65;;;14.15;;
71679;SDS011;59512;42.662;23.254;2023-04-24T04:32:30;24.65;;;14.65;;
71679;SDS011;59512;42.662;23.254;2023-04-24T04:34:58;18.63;;;11.67;;
71679;SDS011;59512;42.662;23.254;2023-04-24T04:37:28;18.02;;;11.73;;
71679;SDS011;59512;42.662;23.254;2023-04-24T04:39:54;19.05;;;12.80;;
71679;SDS011;59512;42.662;23.254;2023-04-24T04:42:19;19.10;;;12.07;;
71679;SDS011;59512;42.662;23.254;2023-04-24T04:44:45;15.47;;;12.23;;
71679;SDS011;59512;42.662;23.254;2023-04-24T04:47:10;17.70;;;12.32;;
71679;SDS011;59512;42.662;23.254;2023-04-24T04:49:36;20.87;;;12.83;;
71679;SDS011;59512;42.662;23.254;2023-04-24T04:52:06;16.25;;;11.18;;
71679;SDS011;59512;42.662;23.254;2023-04-24T04:54:31;17.33;;;11.83;;
71679;SDS011;59512;42.662;23.254;2023-04-24T04:56:57;22.03;;;13.10;;
71679;SDS011;59512;42.662;23.254;2023-04-24T04:59:22;17.97;;;11.70;;
71679;SDS011;59512;42.662;23.254;2023-04-24T05:01:47;17.85;;;10.88;;
71679;SDS011;59512;42.662;23.254;2023-04-24T05:04:13;21.43;;;12.10;;
71679;SDS011;59512;42.662;23.254;2023-04-24T05:06:38;20.53;;;12.67;;
71679;SDS011;59512;42.662;23.254;2023-04-24T05:09:04;14.50;;;10.63;;
71679;SDS011;59512;42.662;23.254;2023-04-24T05:11:31;18.93;;;11.20;;
71679;SDS011;59512;42.662;23.254;2023-04-24T05:13:56;18.75;;;11.27;;
71679;SDS011;59512;42.662;23.254;2023-04-24T05:16:21;15.90;;;11.03;;
71679;SDS011;59512;42.662;23.254;2023-04-24T05:18:47;18.87;;;11.43;;
71679;SDS011;59512;42.662;23.254;2023-04-24T05:21:12;21.63;;;11.60;;
71679;SDS011;59512;42.662;23.254;2023-04-24T05:23:38;24.43;;;12.13;;
71679;SDS011;59512;42.662;23.254;2023-04-24T05:26:03;22.25;;;12.80;;
71679;SDS011;59512;42.662;23.254;2023-04-24T05:28:29;17.73;;;12.70;;
71679;SDS011;59512;42.662;23.254;2023-04-24T05:30:54;23.97;;;12.80;;
71679;SDS011;59512;42.662;23.254;2023-04-24T05:33:24;20.48;;;12.07;;
71679;SDS011;59512;42.662;23.254;2023-04-24T05:35:50;29.50;;;13.50;;
71679;SDS011;59512;42.662;23.254;2023-04-24T05:38:15;19.52;;;13.23;;
71679;SDS011;59512;42.662;23.254;2023-04-24T05:40:42;19.33;;;12.77;;
71679;SDS011;59512;42.662;23.254;2023-04-24T05:43:08;17.52;;;12.32;;
71679;SDS011;59512;42.662;23.254;2023-04-24T05:45:33;20.03;;;12.47;;
71679;SDS011;59512;42.662;23.254;2023-04-24T05:48:01;21.77;;;12.20;;
71679;SDS011;59512;42.662;23.254;2023-04-24T05:50:27;20.52;;;12.13;;
71679;SDS011;59512;42.662;23.254;2023-04-24T05:52:52;21.02;;;12.95;;
71679;SDS011;59512;42.662;23.254;2023-04-24T05:55:18;20.45;;;13.05;;
71679;SDS011;59512;42.662;23.254;2023-04-24T05:57:44;15.90;;;9.32;;
71679;SDS011;59512;42.662;23.254;2023-04-24T06:00:09;13.77;;;8.77;;
71679;SDS011;59512;42.662;23.254;2023-04-24T06:02:37;17.15;;;8.95;;
71679;SDS011;59512;42.662;23.254;2023-04-24T06:05:03;19.23;;;8.70;;
71679;SDS011;59512;42.662;23.254;2023-04-24T06:07:29;15.88;;;8.77;;
71679;SDS011;59512;42.662;23.254;2023-04-24T06:09:57;17.02;;;8.50;;
71679;SDS011;59512;42.662;23.254;2023-04-24T06:12:22;13.83;;;8.37;;
71679;SDS011;59512;42.662;23.254;2023-04-24T06:14:48;17.17;;;9.97;;
71679;SDS011;59512;42.662;23.254;2023-04-24T06:17:13;15.82;;;9.23;;
71679;SDS011;59512;42.662;23.254;2023-04-24T06:19:39;17.60;;;9.27;;
71679;SDS011;59512;42.662;23.254;2023-04-24T06:22:05;16.75;;;9.77;;
71679;SDS011;59512;42.662;23.254;2023-04-24T06:24:30;16.67;;;9.53;;
71679;SDS011;59512;42.662;23.254;2023-04-24T06:26:56;16.60;;;9.57;;
71679;SDS011;59512;42.662;23.254;2023-04-24T06:29:22;16.02;;;9.93;;
71679;SDS011;59512;42.662;23.254;2023-04-24T06:31:48;16.43;;;9.97;;
71679;SDS011;59512;42.662;23.254;2023-04-24T06:34:13;17.60;;;10.18;;
71679;SDS011;59512;42.662;23.254;2023-04-24T06:36:39;16.83;;;9.77;;
71679;SDS011;59512;42.662;23.254;2023-04-24T06:39:04;16.63;;;9.50;;
71679;SDS011;59512;42.662;23.254;2023-04-24T06:41:30;17.52;;;10.70;;
71679;SDS011;59512;42.662;23.254;2023-04-24T06:43:55;17.13;;;10.68;;
71679;SDS011;59512;42.662;23.254;2023-04-24T06:46:21;18.40;;;10.40;;
71679;SDS011;59512;42.662;23.254;2023-04-24T06:48:51;18.80;;;10.25;;
71679;SDS011;59512;42.662;23.254;2023-04-24T06:51:20;17.40;;;10.90;;
71679;SDS011;59512;42.662;23.254;2023-04-24T06:53:47;18.33;;;10.90;;
71679;SDS011;59512;42.662;23.254;2023-04-24T06:56:12;18.05;;;10.50;;
71679;SDS011;59512;42.662;23.254;2023-04-24T06:58:38;19.35;;;11.20;;
71679;SDS011;59512;42.662;23.254;2023-04-24T07:01:03;18.90;;;10.90;;
71679;SDS011;59512;42.662;23.254;2023-04-24T07:03:28;15.47;;;9.97;;
71679;SDS011;59512;42.662;23.254;2023-04-24T07:05:54;17.88;;;10.52;;
71679;SDS011;59512;42.662;23.254;2023-04-24T07:08:20;16.93;;;10.23;;
71679;SDS011;59512;42.662;23.254;2023-04-24T07:10:47;14.82;;;10.13;;
71679;SDS011;59512;42.662;23.254;2023-04-24T07:13:12;16.87;;;9.93;;
71679;SDS011;59512;42.662;23.254;2023-04-24T07:15:37;15.43;;;9.30;;
71679;SDS011;59512;42.662;23.254;2023-04-24T07:18:03;19.33;;;10.40;;
71679;SDS011;59512;42.662;23.254;2023-04-24T07:20:29;18.33;;;10.70;;
71679;SDS011;59512;42.662;23.254;2023-04-24T07:22:54;20.47;;;9.80;;
71679;SDS011;59512;42.662;23.254;2023-04-24T07:25:20;16.20;;;10.25;;
71679;SDS011;59512;42.662;23.254;2023-04-24T07:27:45;13.03;;;9.50;;
71679;SDS011;59512;42.662;23.254;2023-04-24T07:30:11;16.40;;;9.83;;
71679;SDS011;59512;42.662;23.254;2023-04-24T07:32:36;18.05;;;9.43;;
71679;SDS011;59512;42.662;23.254;2023-04-24T07:35:02;13.47;;;9.03;;
71679;SDS011;59512;42.662;23.254;2023-04-24T07:37:27;12.97;;;9.27;;
71679;SDS011;59512;42.662;23.254;2023-04-24T07:39:54;50.35;;;13.65;;
71679;SDS011;59512;42.662;23.254;2023-04-24T07:42:20;13.90;;;7.50;;
71679;SDS011;59512;42.662;23.254;2023-04-24T07:44:45;14.40;;;8.57;;
71679;SDS011;59512;42.662;23.254;2023-04-24T07:47:12;17.73;;;9.23;;
71679;SDS011;59512;42.662;23.254;2023-04-24T07:49:40;12.02;;;7.60;;
71679;SDS011;59512;42.662;23.254;2023-04-24T07:52:08;15.85;;;8.30;;
71679;SDS011;59512;42.662;23.254;2023-04-24T07:54:34;17.30;;;8.40;;
71679;SDS011;59512;42.662;23.254;2023-04-24T07:56:59;14.75;;;7.97;;
71679;SDS011;59512;42.662;23.254;2023-04-24T07:59:25;12.97;;;8.43;;
71679;SDS011;59512;42.662;23.254;2023-04-24T08:01:51;12.15;;;7.65;;
71679;SDS011;59512;42.662;23.254;2023-04-24T08:04:16;16.13;;;8.63;;
71679;SDS011;59512;42.662;23.254;2023-04-24T08:06:43;14.23;;;8.38;;
71679;SDS011;59512;42.662;23.254;2023-04-24T08:09:08;11.80;;;7.50;;
71679;SDS011;59512;42.662;23.254;2023-04-24T08:11:34;13.10;;;7.82;;
71679;SDS011;59512;42.662;23.254;2023-04-24T08:13:59;12.13;;;8.15;;
71679;SDS011;59512;42.662;23.254;2023-04-24T08:16:24;11.43;;;7.90;;
71679;SDS011;59512;42.662;23.254;2023-04-24T08:18:50;14.10;;;8.33;;
71679;SDS011;59512;42.662;23.254;2023-04-24T08:21:16;12.60;;;8.52;;
71679;SDS011;59512;42.662;23.254;2023-04-24T08:23:43;13.27;;;8.10;;
71679;SDS011;59512;42.662;23.254;2023-04-24T08:26:09;13.32;;;7.38;;
71679;SDS011;59512;42.662;23.254;2023-04-24T08:28:36;14.27;;;8.10;;
71679;SDS011;59512;42.662;23.254;2023-04-24T08:31:01;14.65;;;8.43;;
71679;SDS011;59512;42.662;23.254;2023-04-24T08:33:27;11.55;;;7.85;;
71679;SDS011;59512;42.662;23.254;2023-04-24T08:35:57;14.87;;;8.53;;
71679;SDS011;59512;42.662;23.254;2023-04-24T08:38:23;15.45;;;8.55;;
71679;SDS011;59512;42.662;23.254;2023-04-24T08:40:48;12.93;;;8.43;;
71679;SDS011;59512;42.662;23.254;2023-04-24T08:43:14;12.77;;;8.68;;
71679;SDS011;59512;42.662;23.254;2023-04-24T08:45:40;16.33;;;8.33;;
71679;SDS011;59512;42.662;23.254;2023-04-24T08:48:06;11.80;;;8.70;;
71679;SDS011;59512;42.662;23.254;2023-04-24T08:50:32;14.53;;;8.97;;
71679;SDS011;59512;42.662;23.254;2023-04-24T08:52:57;12.57;;;8.73;;
71679;SDS011;59512;42.662;23.254;2023-04-24T08:55:23;11.33;;;8.30;;
71679;SDS011;59512;42.662;23.254;2023-04-24T08:57:50;12.00;;;7.80;;
71679;SDS011;59512;42.662;23.254;2023-04-24T09:00:18;13.75;;;8.70;;
71679;SDS011;59512;42.662;23.254;2023-04-24T09:02:47;13.10;;;7.70;;
71679;SDS011;59512;42.662;23.254;2023-04-24T09:05:14;12.70;;;7.88;;
71679;SDS011;59512;42.662;23.254;2023-04-24T09:07:43;15.48;;;8.40;;
71679;SDS011;59512;42.662;23.254;2023-04-24T09:10:11;13.88;;;8.65;;
71679;SDS011;59512;42.662;23.254;2023-04-24T09:12:37;10.95;;;7.30;;
71679;SDS011;59512;42.662;23.254;2023-04-24T09:15:03;13.63;;;8.07;;
71679;SDS011;59512;42.662;23.254;2023-04-24T09:17:30;13.93;;;8.43;;
71679;SDS011;59512;42.662;23.254;2023-04-24T09:19:56;12.23;;;7.32;;
71679;SDS011;59512;42.662;23.254;2023-04-24T09:22:21;10.30;;;6.77;;
71679;SDS011;59512;42.662;23.254;2023-04-24T09:24:47;15.63;;;7.70;;
71679;SDS011;59512;42.662;23.254;2023-04-24T09:27:13;8.93;;;6.97;;
71679;SDS011;59512;42.662;23.254;2023-04-24T09:29:47;11.93;;;7.47;;
71679;SDS011;59512;42.662;23.254;2023-04-24T09:32:19;10.48;;;6.95;;
71679;SDS011;59512;42.662;23.254;2023-04-24T09:35:04;12.52;;;7.20;;
71679;SDS011;59512;42.662;23.254;2023-04-24T09:37:46;14.48;;;7.50;;
71679;SDS011;59512;42.662;23.254;2023-04-24T09:40:19;10.53;;;6.53;;
71679;SDS011;59512;42.662;23.254;2023-04-24T09:42:46;10.85;;;6.22;;
71679;SDS011;59512;42.662;23.254;2023-04-24T09:45:17;16.08;;;6.95;;
71679;SDS011;59512;42.662;23.254;2023-04-24T09:47:43;13.90;;;5.93;;
71679;SDS011;59512;42.662;23.254;2023-04-24T09:50:09;12.02;;;6.38;;
71679;SDS011;59512;42.662;23.254;2023-04-24T09:52:42;11.70;;;6.67;;
71679;SDS011;59512;42.662;23.254;2023-04-24T09:55:16;12.43;;;6.20;;
71679;SDS011;59512;42.662;23.254;2023-04-24T09:57:51;11.93;;;6.72;;
71679;SDS011;59512;42.662;23.254;2023-04-24T10:00:18;11.32;;;6.80;;
71679;SDS011;59512;42.662;23.254;2023-04-24T10:02:51;11.05;;;6.00;;
71679;SDS011;59512;42.662;23.254;2023-04-24T10:05:35;12.03;;;6.40;;
71679;SDS011;59512;42.662;23.254;2023-04-24T10:08:03;13.35;;;6.13;;
71679;SDS011;59512;42.662;23.254;2023-04-24T10:10:33;11.25;;;6.18;;
71679;SDS011;59512;42.662;23.254;2023-04-24T10:13:01;9.05;;;5.40;;
71679;SDS011;59512;42.662;23.254;2023-04-24T10:15:28;11.23;;;5.40;;
71679;SDS011;59512;42.662;23.254;2023-04-24T10:17:53;10.73;;;5.07;;
71679;SDS011;59512;42.662;23.254;2023-04-24T10:20:23;6.47;;;3.87;;
71679;SDS011;59512;42.662;23.254;2023-04-24T10:22:50;8.30;;;4.15;;
71679;SDS011;59512;42.662;23.254;2023-04-24T10:25:20;7.22;;;3.67;;
71679;SDS011;59512;42.662;23.254;2023-04-24T10:27:47;7.85;;;4.15;;
71679;SDS011;59512;42.662;23.254;2023-04-24T10:30:14;7.83;;;4.20;;
71679;SDS011;59512;42.662;23.254;2023-04-24T10:32:39;6.80;;;3.65;;
71679;SDS011;59512;42.662;23.254;2023-04-24T10:35:09;6.57;;;4.00;;
71679;SDS011;59512;42.662;23.254;2023-04-24T10:38:21;7.40;;;4.00;;
71679;SDS011;59512;42.662;23.254;2023-04-24T10:40:34;6.68;;;3.58;;
71679;SDS011;59512;42.662;23.254;2023-04-24T10:43:04;7.75;;;3.45;;
71679;SDS011;59512;42.662;23.254;2023-04-24T10:45:32;7.43;;;3.80;;
71679;SDS011;59512;42.662;23.254;2023-04-24T10:47:59;9.87;;;4.23;;
71679;SDS011;59512;42.662;23.254;2023-04-24T10:50:41;8.27;;;4.15;;
71679;SDS011;59512;42.662;23.254;2023-04-24T10:53:12;8.80;;;4.28;;
71679;SDS011;59512;42.662;23.254;2023-04-24T10:58:06;7.73;;;4.00;;
71679;SDS011;59512;42.662;23.254;2023-04-24T11:00:31;7.00;;;4.07;;
71679;SDS011;59512;42.662;23.254;2023-04-24T11:02:57;7.43;;;4.50;;
71679;SDS011;59512;42.662;23.254;2023-04-24T11:05:24;6.30;;;3.70;;
71679;SDS011;59512;42.662;23.254;2023-04-24T11:08:43;10.17;;;4.30;;
71679;SDS011;59512;42.662;23.254;2023-04-24T11:16:30;8.52;;;4.50;;
71679;SDS011;59512;42.662;23.254;2023-04-24T11:19:09;8.10;;;5.00;;
71679;SDS011;59512;42.662;23.254;2023-04-24T11:24:23;7.97;;;5.00;;
71679;SDS011;59512;42.662;23.254;2023-04-24T11:26:50;8.33;;;4.40;;
71679;SDS011;59512;42.662;23.254;2023-04-24T11:29:16;7.32;;;4.25;;
71679;SDS011;59512;42.662;23.254;2023-04-24T11:31:44;7.57;;;4.30;;
71679;SDS011;59512;42.662;23.254;2023-04-24T11:34:15;7.60;;;4.60;;
71679;SDS011;59512;42.662;23.254;2023-04-24T11:36:47;8.13;;;4.97;;
71679;SDS011;59512;42.662;23.254;2023-04-24T11:39:13;8.17;;;4.97;;
71679;SDS011;59512;42.662;23.254;2023-04-24T11:41:39;9.30;;;5.70;;
71679;SDS011;59512;42.662;23.254;2023-04-24T11:44:06;10.60;;;5.60;;
71679;SDS011;59512;42.662;23.254;2023-04-24T11:46:32;12.90;;;6.90;;
71679;SDS011;59512;42.662;23.254;2023-04-24T11:48:58;9.80;;;6.30;;
71679;SDS011;59512;42.662;23.254;2023-04-24T11:51:25;11.17;;;6.00;;
71679;SDS011;59512;42.662;23.254;2023-04-24T11:53:51;8.65;;;5.50;;
71679;SDS011;59512;42.662;23.254;2023-04-24T11:56:23;8.77;;;5.57;;
71679;SDS011;59512;42.662;23.254;2023-04-24T11:58:51;8.90;;;5.32;;
71679;SDS011;59512;42.662;23.254;2023-04-24T12:01:17;9.80;;;5.10;;
71679;SDS011;59512;42.662;23.254;2023-04-24T12:03:46;8.73;;;4.70;;
71679;SDS011;59512;42.662;23.254;2023-04-24T12:06:12;7.57;;;4.90;;
71679;SDS011;59512;42.662;23.254;2023-04-24T12:08:38;8.53;;;5.07;;
71679;SDS011;59512;42.662;23.254;2023-04-24T12:11:04;8.30;;;4.82;;
71679;SDS011;59512;42.662;23.254;2023-04-24T12:13:34;10.87;;;5.27;;
71679;SDS011;59512;42.662;23.254;2023-04-24T12:16:01;9.27;;;4.90;;
71679;SDS011;59512;42.662;23.254;2023-04-24T12:18:28;10.88;;;4.78;;
71679;SDS011;59512;42.662;23.254;2023-04-24T12:20:53;6.10;;;4.17;;
71679;SDS011;59512;42.662;23.254;2023-04-24T12:23:34;14.33;;;5.17;;
71679;SDS011;59512;42.662;23.254;2023-04-24T12:26:00;9.35;;;4.93;;
71679;SDS011;59512;42.662;23.254;2023-04-24T12:28:34;7.28;;;4.35;;
71679;SDS011;59512;42.662;23.254;2023-04-24T12:31:01;7.20;;;4.60;;
71679;SDS011;59512;42.662;23.254;2023-04-24T12:33:26;6.80;;;4.60;;
71679;SDS011;59512;42.662;23.254;2023-04-24T12:35:52;6.90;;;4.40;;
71679;SDS011;59512;42.662;23.254;2023-04-24T12:38:24;6.05;;;4.20;;
71679;SDS011;59512;42.662;23.254;2023-04-24T12:41:03;6.97;;;4.30;;
71679;SDS011;59512;42.662;23.254;2023-04-24T12:43:30;7.78;;;4.63;;
71679;SDS011;59512;42.662;23.254;2023-04-24T12:45:56;7.80;;;4.50;;
71679;SDS011;59512;42.662;23.254;2023-04-24T12:48:22;6.38;;;4.78;;
71679;SDS011;59512;42.662;23.254;2023-04-24T12:50:47;8.50;;;5.13;;
71679;SDS011;59512;42.662;23.254;2023-04-24T12:53:13;8.63;;;5.13;;
71679;SDS011;59512;42.662;23.254;2023-04-24T12:55:39;9.87;;;4.80;;
71679;SDS011;59512;42.662;23.254;2023-04-24T12:58:05;11.02;;;5.10;;
71679;SDS011;59512;42.662;23.254;2023-04-24T13:00:30;8.40;;;4.90;;
71679;SDS011;59512;42.662;23.254;2023-04-24T13:02:56;7.07;;;4.60;;
71679;SDS011;59512;42.662;23.254;2023-04-24T13:05:21;6.00;;;3.97;;
71679;SDS011;59512;42.662;23.254;2023-04-24T13:07:47;6.60;;;4.10;;
71679;SDS011;59512;42.662;23.254;2023-04-24T13:10:12;9.40;;;4.17;;
71679;SDS011;59512;42.662;23.254;2023-04-24T13:12:38;7.85;;;4.20;;
71679;SDS011;59512;42.662;23.254;2023-04-24T13:15:04;7.47;;;4.20;;
71679;SDS011;59512;42.662;23.254;2023-04-24T13:17:30;8.63;;;4.55;;
71679;SDS011;59512;42.662;23.254;2023-04-24T13:19:55;10.83;;;4.53;;
71679;SDS011;59512;42.662;23.254;2023-04-24T13:22:21;7.63;;;4.17;;
71679;SDS011;59512;42.662;23.254;2023-04-24T13:24:46;8.70;;;4.53;;
71679;SDS011;59512;42.662;23.254;2023-04-24T13:27:13;7.22;;;4.30;;
71679;SDS011;59512;42.662;23.254;2023-04-24T13:29:39;8.20;;;4.57;;
71679;SDS011;59512;42.662;23.254;2023-04-24T13:32:04;8.57;;;4.40;;
71679;SDS011;59512;42.662;23.254;2023-04-24T13:34:30;8.33;;;4.23;;
71679;SDS011;59512;42.662;23.254;2023-04-24T13:36:56;8.85;;;4.32;;
71679;SDS011;59512;42.662;23.254;2023-04-24T13:39:23;9.02;;;4.43;;
71679;SDS011;59512;42.662;23.254;2023-04-24T13:41:49;8.57;;;4.23;;
71679;SDS011;59512;42.662;23.254;2023-04-24T13:44:16;7.25;;;4.22;;
71679;SDS011;59512;42.662;23.254;2023-04-24T13:46:42;8.93;;;4.43;;
71679;SDS011;59512;42.662;23.254;2023-04-24T13:49:09;8.00;;;4.17;;
71679;SDS011;59512;42.662;23.254;2023-04-24T13:51:35;7.50;;;3.65;;
71679;SDS011;59512;42.662;23.254;2023-04-24T13:54:01;9.53;;;4.10;;
71679;SDS011;59512;42.662;23.254;2023-04-24T13:56:27;9.30;;;4.35;;
71679;SDS011;59512;42.662;23.254;2023-04-24T13:58:52;9.17;;;4.17;;
71679;SDS011;59512;42.662;23.254;2023-04-24T14:01:19;7.68;;;4.07;;
71679;SDS011;59512;42.662;23.254;2023-04-24T14:03:45;6.83;;;4.00;;
71679;SDS011;59512;42.662;23.254;2023-04-24T14:06:11;8.10;;;3.85;;
71679;SDS011;59512;42.662;23.254;2023-04-24T14:08:36;8.97;;;3.97;;
71679;SDS011;59512;42.662;23.254;2023-04-24T14:11:02;7.43;;;4.10;;
71679;SDS011;59512;42.662;23.254;2023-04-24T14:13:27;6.82;;;4.10;;
71679;SDS011;59512;42.662;23.254;2023-04-24T14:15:53;7.77;;;4.10;;
71679;SDS011;59512;42.662;23.254;2023-04-24T14:18:18;7.53;;;3.97;;
71679;SDS011;59512;42.662;23.254;2023-04-24T14:20:44;8.80;;;4.35;;
71679;SDS011;59512;42.662;23.254;2023-04-24T14:23:10;9.30;;;4.03;;
71679;SDS011;59512;42.662;23.254;2023-04-24T14:25:35;8.37;;;4.00;;